Time;durP1;ratioP1;P1;durP2;ratioP2;P2;SDS_P1;SDS_P2;PMS_P1;PMS_P2;Temp;Humidity;BMP_temperature;BMP_pressure;BME280_temperature;BME280_humidity;BME280_pressure;Samples;Min_cycle;Max_cycle;Signal;HPM_P1;HPM_P2
2022/01/31 00:00:47;;;;;;;13.23;3.35;;;;;;;;;;5050470;28;20040;-70
2022/01/31 00:03:13;;;;;;;11.43;3.20;;;;;;;;;;5051777;28;20027;-69
2022/01/31 00:05:38;;;;;;;9.90;2.95;;;;;;;;;;5050618;28;20025;-70
2022/01/31 00:08:04;;;;;;;10.93;3.33;;;;;;;;;;5048885;28;20025;-70
2022/01/31 00:10:31;;;;;;;14.35;3.58;;;;;;;;;;5051239;28;20047;-70
2022/01/31 00:15:22;;;;;;;10.13;3.35;;;;;;;;;;5050452;28;20387;-70
2022/01/31 00:17:47;;;;;;;8.25;3.58;;;;;;;;;;5031741;28;20029;-70
2022/01/31 00:20:12;;;;;;;13.57;3.50;;;;;;;;;;5050345;28;20029;-69
2022/01/31 00:22:38;;;;;;;9.20;3.60;;;;;;;;;;5050375;28;20097;-70
2022/01/31 00:25:04;;;;;;;12.55;3.70;;;;;;;;;;5016568;28;20384;-70
2022/01/31 00:27:29;;;;;;;13.93;3.80;;;;;;;;;;5029249;28;20071;-70
2022/01/31 00:29:54;;;;;;;9.35;3.72;;;;;;;;;;5049990;28;20057;-71
2022/01/31 00:32:20;;;;;;;10.70;3.75;;;;;;;;;;5030593;28;20518;-70
2022/01/31 00:34:45;;;;;;;8.57;3.28;;;;;;;;;;5050026;28;20503;-70
2022/01/31 00:37:10;;;;;;;14.52;3.63;;;;;;;;;;5031331;28;20037;-70
2022/01/31 00:39:36;;;;;;;7.80;3.35;;;;;;;;;;5048970;28;20086;-70
2022/01/31 00:42:04;;;;;;;13.95;3.58;;;;;;;;;;5032186;28;20082;-70
2022/01/31 00:44:40;;;;;;;14.02;3.53;;;;;;;;;;5016078;28;20025;-70
2022/01/31 00:47:16;;;;;;;12.35;3.65;;;;;;;;;;5048845;28;20155;-71
2022/01/31 00:49:49;;;;;;;11.27;3.97;;;;;;;;;;5028482;28;20032;-70
2022/01/31 00:52:14;;;;;;;13.70;3.47;;;;;;;;;;5049596;28;20028;-71
2022/01/31 00:54:39;;;;;;;7.78;3.60;;;;;;;;;;5015786;28;20028;-70
2022/01/31 00:57:05;;;;;;;11.48;4.50;;;;;;;;;;5048983;28;20040;-70
2022/01/31 00:59:30;;;;;;;9.43;3.90;;;;;;;;;;5029710;28;20116;-71
2022/01/31 01:01:55;;;;;;;10.10;3.83;;;;;;;;;;5046489;28;20128;-70
2022/01/31 01:04:21;;;;;;;11.13;4.13;;;;;;;;;;5049798;28;20041;-70
2022/01/31 01:06:46;;;;;;;12.73;4.40;;;;;;;;;;5048357;28;20141;-71
2022/01/31 01:09:11;;;;;;;15.95;4.90;;;;;;;;;;5048198;28;20031;-70
2022/01/31 01:11:37;;;;;;;14.88;4.45;;;;;;;;;;5049372;28;20029;-70
2022/01/31 01:14:02;;;;;;;11.05;4.28;;;;;;;;;;5049369;28;20039;-71
2022/01/31 01:16:27;;;;;;;10.65;4.57;;;;;;;;;;5048942;28;20021;-70
2022/01/31 01:18:53;;;;;;;10.45;4.53;;;;;;;;;;5031144;28;20353;-70
2022/01/31 01:21:18;;;;;;;13.00;4.45;;;;;;;;;;5047906;28;20083;-71
2022/01/31 01:23:43;;;;;;;17.88;4.45;;;;;;;;;;5048963;28;20492;-70
2022/01/31 01:26:09;;;;;;;10.15;3.92;;;;;;;;;;5048317;28;20099;-70
2022/01/31 01:28:34;;;;;;;11.63;4.80;;;;;;;;;;5014528;28;20772;-70
2022/01/31 01:31:00;;;;;;;13.30;4.40;;;;;;;;;;5046184;28;20678;-70
2022/01/31 01:33:25;;;;;;;9.52;3.90;;;;;;;;;;5049727;28;20033;-70
2022/01/31 01:35:53;;;;;;;9.00;4.35;;;;;;;;;;5049065;28;20519;-70
2022/01/31 01:38:19;;;;;;;8.25;3.75;;;;;;;;;;5046083;28;20025;-71
2022/01/31 01:40:45;;;;;;;9.65;4.07;;;;;;;;;;5047814;28;20029;-70
2022/01/31 01:43:11;;;;;;;9.80;4.03;;;;;;;;;;5014898;28;20040;-70
2022/01/31 01:45:38;;;;;;;14.32;3.85;;;;;;;;;;5030852;28;20053;-70
2022/01/31 01:48:06;;;;;;;10.18;4.47;;;;;;;;;;5047062;28;20025;-70
2022/01/31 01:50:34;;;;;;;9.85;3.90;;;;;;;;;;5046740;28;20498;-70
2022/01/31 01:53:00;;;;;;;13.60;4.85;;;;;;;;;;5031187;28;20116;-70
2022/01/31 01:55:25;;;;;;;9.10;4.32;;;;;;;;;;5030149;28;20534;-71
2022/01/31 01:57:51;;;;;;;14.02;4.78;;;;;;;;;;5045015;28;20451;-70
2022/01/31 02:00:23;;;;;;;14.10;5.13;;;;;;;;;;5048578;28;20059;-70
2022/01/31 02:02:48;;;;;;;8.23;4.20;;;;;;;;;;5052506;28;20074;-71
2022/01/31 02:05:14;;;;;;;9.18;3.83;;;;;;;;;;5052189;28;20033;-71
2022/01/31 02:07:39;;;;;;;13.73;4.70;;;;;;;;;;5034251;28;20093;-70
2022/01/31 02:10:06;;;;;;;13.57;4.70;;;;;;;;;;5033332;28;21380;-71
2022/01/31 02:12:46;;;;;;;11.32;4.80;;;;;;;;;;5051369;28;20028;-70
2022/01/31 02:15:12;;;;;;;13.45;4.32;;;;;;;;;;5029877;28;20112;-70
2022/01/31 02:17:37;;;;;;;12.00;5.13;;;;;;;;;;5035049;28;20531;-71
2022/01/31 02:20:04;;;;;;;13.93;5.40;;;;;;;;;;5019353;28;20033;-70
2022/01/31 02:22:29;;;;;;;14.23;4.40;;;;;;;;;;5032744;28;20483;-70
2022/01/31 02:24:54;;;;;;;12.13;4.82;;;;;;;;;;5034382;28;20040;-71
2022/01/31 02:27:30;;;;;;;15.05;4.35;;;;;;;;;;5051899;28;20028;-71
2022/01/31 02:29:56;;;;;;;12.20;4.80;;;;;;;;;;5013224;28;20094;-70
2022/01/31 02:32:22;;;;;;;13.30;5.05;;;;;;;;;;5049629;28;20072;-70
2022/01/31 02:34:48;;;;;;;16.25;5.13;;;;;;;;;;5051286;28;20091;-70
2022/01/31 02:37:13;;;;;;;11.05;4.95;;;;;;;;;;5051827;28;20487;-70
2022/01/31 02:39:38;;;;;;;12.65;5.38;;;;;;;;;;5051078;28;20033;-70
2022/01/31 02:42:04;;;;;;;10.45;4.88;;;;;;;;;;5048976;28;20037;-71
2022/01/31 02:44:29;;;;;;;9.63;4.38;;;;;;;;;;5052179;28;20028;-70
2022/01/31 02:46:56;;;;;;;10.07;4.72;;;;;;;;;;5051751;28;20036;-70
2022/01/31 02:49:25;;;;;;;10.02;4.10;;;;;;;;;;5017352;28;20475;-70
2022/01/31 02:51:53;;;;;;;7.38;4.18;;;;;;;;;;5033673;28;20028;-70
2022/01/31 02:54:18;;;;;;;7.57;3.90;;;;;;;;;;5017008;28;20505;-71
2022/01/31 02:56:43;;;;;;;10.32;4.55;;;;;;;;;;5051869;28;20075;-71
2022/01/31 02:59:09;;;;;;;9.15;4.65;;;;;;;;;;5033741;28;20067;-71
2022/01/31 03:01:35;;;;;;;9.27;4.18;;;;;;;;;;5049915;28;20052;-71
2022/01/31 03:04:00;;;;;;;12.73;4.20;;;;;;;;;;5050217;28;20070;-71
2022/01/31 03:06:25;;;;;;;11.40;5.32;;;;;;;;;;5033160;28;20498;-71
2022/01/31 03:08:51;;;;;;;15.63;4.53;;;;;;;;;;5051310;28;20041;-71
2022/01/31 03:11:16;;;;;;;9.30;4.13;;;;;;;;;;5050549;28;20107;-70
2022/01/31 03:13:41;;;;;;;9.18;4.05;;;;;;;;;;5049880;28;20627;-70
2022/01/31 03:16:07;;;;;;;7.13;4.32;;;;;;;;;;5051887;28;20519;-70
2022/01/31 03:18:32;;;;;;;9.38;4.53;;;;;;;;;;5051770;28;20017;-71
2022/01/31 03:20:57;;;;;;;10.93;5.18;;;;;;;;;;5051584;28;20036;-71
2022/01/31 03:23:23;;;;;;;13.05;4.82;;;;;;;;;;5049256;28;20143;-71
2022/01/31 03:25:48;;;;;;;12.60;4.78;;;;;;;;;;5050101;28;20033;-71
2022/01/31 03:28:13;;;;;;;7.70;4.40;;;;;;;;;;5049928;28;20069;-70
2022/01/31 03:30:39;;;;;;;12.43;5.10;;;;;;;;;;5050460;28;20037;-70
2022/01/31 03:33:04;;;;;;;11.43;4.72;;;;;;;;;;5050217;28;20033;-71
2022/01/31 03:35:29;;;;;;;8.20;4.13;;;;;;;;;;5032242;28;20051;-70
2022/01/31 03:37:55;;;;;;;8.13;4.53;;;;;;;;;;5051365;28;20234;-71
2022/01/31 03:40:20;;;;;;;14.95;6.38;;;;;;;;;;5031776;28;21131;-70
2022/01/31 03:42:45;;;;;;;13.55;5.95;;;;;;;;;;5048906;28;20177;-70
2022/01/31 03:45:11;;;;;;;12.23;4.90;;;;;;;;;;5050413;28;20033;-70
2022/01/31 03:47:43;;;;;;;9.32;5.25;;;;;;;;;;5051403;28;20033;-71
2022/01/31 03:50:08;;;;;;;8.55;4.93;;;;;;;;;;5051065;28;20174;-71
2022/01/31 03:52:34;;;;;;;12.95;5.10;;;;;;;;;;5050716;28;21327;-70
2022/01/31 03:54:59;;;;;;;9.40;4.45;;;;;;;;;;5049053;28;20071;-71
2022/01/31 03:57:25;;;;;;;9.50;4.65;;;;;;;;;;5050486;28;20025;-70
2022/01/31 03:59:50;;;;;;;11.55;5.20;;;;;;;;;;5049410;28;20638;-70
2022/01/31 04:02:15;;;;;;;12.98;5.30;;;;;;;;;;5049902;28;20029;-70
2022/01/31 04:04:40;;;;;;;11.25;5.00;;;;;;;;;;5049454;28;20051;-70
2022/01/31 04:07:06;;;;;;;7.82;5.28;;;;;;;;;;5050355;28;20036;-71
2022/01/31 04:09:31;;;;;;;13.68;5.07;;;;;;;;;;5031991;28;20035;-70
2022/01/31 04:11:56;;;;;;;7.63;4.70;;;;;;;;;;5032424;28;20029;-70
2022/01/31 04:14:26;;;;;;;8.50;5.15;;;;;;;;;;5049319;28;20107;-70
2022/01/31 04:16:53;;;;;;;14.18;5.15;;;;;;;;;;5048631;28;20041;-71
2022/01/31 04:19:18;;;;;;;9.00;4.85;;;;;;;;;;5031913;28;20142;-70
2022/01/31 04:21:44;;;;;;;12.00;5.38;;;;;;;;;;5049714;28;20111;-70
2022/01/31 04:24:09;;;;;;;7.75;5.50;;;;;;;;;;5047643;28;20056;-70
2022/01/31 04:26:44;;;;;;;9.50;5.10;;;;;;;;;;5048396;28;20106;-70
2022/01/31 04:29:14;;;;;;;12.77;4.72;;;;;;;;;;5017170;28;20032;-70
2022/01/31 04:31:44;;;;;;;8.32;5.00;;;;;;;;;;5047874;28;20040;-71
2022/01/31 04:34:09;;;;;;;13.75;5.53;;;;;;;;;;5049448;28;20089;-70
2022/01/31 04:36:35;;;;;;;11.02;5.43;;;;;;;;;;5030807;28;20490;-70
2022/01/31 04:39:00;;;;;;;11.43;5.28;;;;;;;;;;5031685;28;20100;-71
2022/01/31 04:41:25;;;;;;;11.20;5.00;;;;;;;;;;5011251;28;20025;-71
2022/01/31 04:43:53;;;;;;;9.27;5.05;;;;;;;;;;5030684;28;20040;-70
2022/01/31 04:46:19;;;;;;;11.60;5.28;;;;;;;;;;5048655;28;20044;-71
2022/01/31 04:48:44;;;;;;;12.23;5.57;;;;;;;;;;5049708;28;20058;-70
2022/01/31 04:51:10;;;;;;;8.85;5.53;;;;;;;;;;5049381;28;20036;-71
2022/01/31 04:53:37;;;;;;;7.43;5.15;;;;;;;;;;5048899;28;20739;-70
2022/01/31 04:56:02;;;;;;;9.23;5.80;;;;;;;;;;5048221;28;20526;-70
2022/01/31 04:58:28;;;;;;;11.27;6.07;;;;;;;;;;5030079;28;20056;-70
2022/01/31 05:00:53;;;;;;;11.10;5.60;;;;;;;;;;5031210;28;20403;-70
2022/01/31 05:03:19;;;;;;;9.52;5.72;;;;;;;;;;5048727;28;20025;-70
2022/01/31 05:05:44;;;;;;;11.95;6.03;;;;;;;;;;5049726;28;20024;-70
2022/01/31 05:08:10;;;;;;;9.80;5.90;;;;;;;;;;5029115;28;20091;-70
2022/01/31 05:10:41;;;;;;;10.70;5.88;;;;;;;;;;5031813;28;20095;-70
2022/01/31 05:13:07;;;;;;;10.35;5.90;;;;;;;;;;5031772;28;20045;-70
2022/01/31 05:15:32;;;;;;;9.77;5.88;;;;;;;;;;5049289;28;20039;-71
2022/01/31 05:17:57;;;;;;;9.38;6.00;;;;;;;;;;5047862;28;20028;-71
2022/01/31 05:20:23;;;;;;;10.90;6.03;;;;;;;;;;5049844;28;20033;-70
2022/01/31 05:22:48;;;;;;;9.77;5.82;;;;;;;;;;5049171;28;20032;-71
2022/01/31 05:25:13;;;;;;;12.75;5.80;;;;;;;;;;5048589;28;20032;-70
2022/01/31 05:27:39;;;;;;;8.13;5.20;;;;;;;;;;5048058;28;20050;-71
2022/01/31 05:30:04;;;;;;;11.23;5.88;;;;;;;;;;5030637;28;20033;-70
2022/01/31 05:32:30;;;;;;;13.55;6.43;;;;;;;;;;5048075;28;20459;-70
2022/01/31 05:34:55;;;;;;;8.93;6.10;;;;;;;;;;5049601;28;20123;-71
2022/01/31 05:37:20;;;;;;;9.88;5.68;;;;;;;;;;5052837;28;20024;-70
2022/01/31 05:39:46;;;;;;;15.60;6.38;;;;;;;;;;5052223;28;20063;-69
2022/01/31 05:42:12;;;;;;;14.43;5.20;;;;;;;;;;5035614;28;20045;-70
2022/01/31 05:44:37;;;;;;;10.30;5.28;;;;;;;;;;5034880;28;20038;-69
2022/01/31 05:47:03;;;;;;;17.38;5.13;;;;;;;;;;5052263;28;20098;-69
2022/01/31 05:49:28;;;;;;;11.13;4.82;;;;;;;;;;5051730;28;20086;-69
2022/01/31 05:51:54;;;;;;;14.45;4.85;;;;;;;;;;5034271;28;20124;-69
2022/01/31 05:54:20;;;;;;;10.27;5.35;;;;;;;;;;5035271;28;20021;-70
2022/01/31 05:56:46;;;;;;;13.90;4.88;;;;;;;;;;5017943;28;20442;-69
2022/01/31 05:59:11;;;;;;;6.85;3.60;;;;;;;;;;5050847;28;20032;-69
2022/01/31 06:01:38;;;;;;;12.75;5.15;;;;;;;;;;5017085;28;20122;-69
2022/01/31 06:04:08;;;;;;;12.20;4.20;;;;;;;;;;5051786;28;20041;-69
2022/01/31 06:06:33;;;;;;;9.95;3.95;;;;;;;;;;5051532;28;20036;-70
2022/01/31 06:08:59;;;;;;;7.47;3.35;;;;;;;;;;5034131;28;20028;-70
2022/01/31 06:11:25;;;;;;;8.55;3.10;;;;;;;;;;5052200;28;20068;-70
2022/01/31 06:13:51;;;;;;;9.10;3.35;;;;;;;;;;5052064;28;20069;-68
2022/01/31 06:16:18;;;;;;;9.07;2.92;;;;;;;;;;5052083;28;20105;-68
2022/01/31 06:18:43;;;;;;;6.15;3.42;;;;;;;;;;5034185;28;20052;-68
2022/01/31 06:21:11;;;;;;;8.25;3.45;;;;;;;;;;5051722;28;20064;-69
2022/01/31 06:23:36;;;;;;;10.77;3.30;;;;;;;;;;5052409;28;20028;-69
2022/01/31 06:26:02;;;;;;;13.77;3.40;;;;;;;;;;5051871;28;20033;-69
2022/01/31 06:28:27;;;;;;;5.40;2.55;;;;;;;;;;5050574;28;20021;-70
2022/01/31 06:30:52;;;;;;;6.65;2.78;;;;;;;;;;5033117;28;20524;-70
2022/01/31 06:33:18;;;;;;;10.43;3.38;;;;;;;;;;5052696;28;20395;-71
2022/01/31 06:35:44;;;;;;;7.70;3.10;;;;;;;;;;5051243;28;20534;-70
2022/01/31 06:38:09;;;;;;;6.43;2.72;;;;;;;;;;5016023;28;20128;-70
2022/01/31 06:40:34;;;;;;;8.85;3.13;;;;;;;;;;5017462;28;20561;-71
2022/01/31 06:43:00;;;;;;;10.23;3.30;;;;;;;;;;5018245;28;20121;-70
2022/01/31 06:45:25;;;;;;;9.75;3.00;;;;;;;;;;5017186;28;20064;-71
2022/01/31 06:47:50;;;;;;;6.90;3.30;;;;;;;;;;5047569;28;20529;-71
2022/01/31 06:50:16;;;;;;;9.90;2.55;;;;;;;;;;5050555;28;20068;-70
2022/01/31 06:52:42;;;;;;;9.10;2.90;;;;;;;;;;5034223;28;20077;-70
2022/01/31 06:55:08;;;;;;;7.88;3.22;;;;;;;;;;5049539;28;20064;-72
2022/01/31 06:57:33;;;;;;;6.40;3.08;;;;;;;;;;5030920;28;20060;-72
2022/01/31 07:00:07;;;;;;;13.02;2.92;;;;;;;;;;5050533;28;20095;-73
2022/01/31 07:02:32;;;;;;;11.97;3.67;;;;;;;;;;5029461;28;20519;-72
2022/01/31 07:05:00;;;;;;;8.25;3.25;;;;;;;;;;5014698;28;20087;-70
2022/01/31 07:07:25;;;;;;;8.68;3.03;;;;;;;;;;5050678;28;20029;-70
2022/01/31 07:09:50;;;;;;;7.10;2.70;;;;;;;;;;5023524;28;20040;-70
2022/01/31 07:12:17;;;;;;;9.18;3.03;;;;;;;;;;5033310;28;20035;-70
2022/01/31 07:14:42;;;;;;;10.88;3.00;;;;;;;;;;5051835;28;20103;-73
2022/01/31 07:17:08;;;;;;;7.65;3.58;;;;;;;;;;5047597;28;20626;-70
2022/01/31 07:19:36;;;;;;;4.53;2.70;;;;;;;;;;5031760;28;20734;-72
2022/01/31 07:22:04;;;;;;;6.78;2.47;;;;;;;;;;5030186;28;20036;-72
2022/01/31 07:24:45;;;;;;;4.78;2.55;;;;;;;;;;5053496;28;20078;-71
2022/01/31 07:27:11;;;;;;;6.43;2.85;;;;;;;;;;5034615;28;20041;-71
2022/01/31 07:29:36;;;;;;;9.80;2.80;;;;;;;;;;5034482;28;20592;-70
2022/01/31 07:32:01;;;;;;;7.85;2.97;;;;;;;;;;5030688;28;20041;-70
2022/01/31 07:34:27;;;;;;;8.98;2.67;;;;;;;;;;5035616;28;20090;-71
2022/01/31 07:36:52;;;;;;;4.03;2.20;;;;;;;;;;5032086;28;20032;-73
2022/01/31 07:39:17;;;;;;;5.38;2.58;;;;;;;;;;5032773;28;20043;-71
2022/01/31 07:41:43;;;;;;;6.18;2.30;;;;;;;;;;5034909;28;20199;-73
2022/01/31 07:44:08;;;;;;;8.60;2.90;;;;;;;;;;5014851;28;20021;-71
2022/01/31 07:46:34;;;;;;;6.22;2.40;;;;;;;;;;5050460;28;20117;-70
2022/01/31 07:48:59;;;;;;;3.95;2.25;;;;;;;;;;5031081;28;20033;-72
2022/01/31 07:51:25;;;;;;;5.05;2.35;;;;;;;;;;5049597;28;20048;-72
2022/01/31 07:53:50;;;;;;;2.30;2.03;;;;;;;;;;5033389;28;20033;-72
2022/01/31 07:56:17;;;;;;;4.80;2.13;;;;;;;;;;5049884;28;20476;-72
2022/01/31 07:58:42;;;;;;;2.78;2.10;;;;;;;;;;5000125;28;20025;-73
2022/01/31 08:01:07;;;;;;;3.10;2.10;;;;;;;;;;5027544;28;20082;-71
2022/01/31 08:03:33;;;;;;;8.15;2.60;;;;;;;;;;5027291;28;20130;-72
2022/01/31 08:05:59;;;;;;;11.52;2.42;;;;;;;;;;5028660;28;20437;-70
2022/01/31 08:08:24;;;;;;;9.60;3.45;;;;;;;;;;5029813;28;20044;-73
2022/01/31 08:10:50;;;;;;;4.55;2.25;;;;;;;;;;5030296;28;20390;-73
2022/01/31 08:13:15;;;;;;;6.43;2.60;;;;;;;;;;5012404;28;20055;-72
2022/01/31 08:15:47;;;;;;;6.78;2.92;;;;;;;;;;5034394;28;20025;-72
2022/01/31 08:18:12;;;;;;;6.75;2.67;;;;;;;;;;5036683;28;20163;-72
2022/01/31 08:20:38;;;;;;;4.35;2.40;;;;;;;;;;5029014;28;20138;-72
2022/01/31 08:23:03;;;;;;;4.63;2.50;;;;;;;;;;5043824;28;20033;-72
2022/01/31 08:25:29;;;;;;;4.25;2.10;;;;;;;;;;5060332;28;20023;-72
2022/01/31 08:28:00;;;;;;;2.53;2.17;;;;;;;;;;5034403;28;20081;-71
2022/01/31 08:30:36;;;;;;;5.07;2.13;;;;;;;;;;5039714;28;20025;-70
2022/01/31 08:33:12;;;;;;;4.88;2.75;;;;;;;;;;5037427;28;20024;-69
2022/01/31 08:35:50;;;;;;;3.90;2.55;;;;;;;;;;5046143;28;20032;-69
2022/01/31 08:38:16;;;;;;;5.68;2.92;;;;;;;;;;5045458;28;20082;-69
2022/01/31 08:40:42;;;;;;;4.53;3.00;;;;;;;;;;5030386;28;20437;-70
2022/01/31 08:43:08;;;;;;;7.85;3.78;;;;;;;;;;5029397;28;20078;-69
2022/01/31 08:45:34;;;;;;;4.85;3.05;;;;;;;;;;5029223;28;20506;-70
2022/01/31 08:47:59;;;;;;;5.63;3.60;;;;;;;;;;5031779;28;20094;-70
2022/01/31 08:50:25;;;;;;;10.40;3.85;;;;;;;;;;5047667;28;20036;-70
2022/01/31 08:52:50;;;;;;;5.15;4.05;;;;;;;;;;5046669;28;20547;-71
2022/01/31 08:55:17;;;;;;;10.52;4.50;;;;;;;;;;5042953;28;20123;-70
2022/01/31 08:57:42;;;;;;;10.00;4.68;;;;;;;;;;5046477;28;20028;-70
2022/01/31 09:00:08;;;;;;;6.40;4.40;;;;;;;;;;5027026;28;20511;-70
2022/01/31 09:02:39;;;;;;;8.85;4.47;;;;;;;;;;5029843;28;20058;-70
2022/01/31 09:05:06;;;;;;;8.00;4.03;;;;;;;;;;5026499;28;20560;-70
2022/01/31 09:07:31;;;;;;;4.97;3.10;;;;;;;;;;5024905;28;20079;-69
2022/01/31 09:09:58;;;;;;;8.63;3.80;;;;;;;;;;5048008;28;20064;-69
2022/01/31 09:12:26;;;;;;;9.55;4.13;;;;;;;;;;5045738;28;20020;-69
2022/01/31 09:14:52;;;;;;;5.80;3.92;;;;;;;;;;5028976;28;20024;-70
2022/01/31 09:17:17;;;;;;;5.45;3.20;;;;;;;;;;5042648;28;20048;-69
2022/01/31 09:19:42;;;;;;;4.18;3.17;;;;;;;;;;5045781;28;20029;-69
2022/01/31 09:22:08;;;;;;;3.67;2.78;;;;;;;;;;5045059;28;20025;-69
2022/01/31 09:24:39;;;;;;;4.90;3.20;;;;;;;;;;5049258;28;20387;-70
2022/01/31 09:27:05;;;;;;;8.50;3.88;;;;;;;;;;5045917;28;20107;-69
2022/01/31 09:29:30;;;;;;;6.22;3.40;;;;;;;;;;5012212;28;20075;-70
2022/01/31 09:31:56;;;;;;;8.02;3.55;;;;;;;;;;5046024;28;20064;-70
2022/01/31 09:34:23;;;;;;;7.80;3.65;;;;;;;;;;5029601;28;20379;-70
2022/01/31 09:36:48;;;;;;;6.47;3.30;;;;;;;;;;5046477;28;20060;-70
2022/01/31 09:39:13;;;;;;;6.82;4.15;;;;;;;;;;5029868;28;20044;-70
2022/01/31 09:41:42;;;;;;;5.57;3.63;;;;;;;;;;5045551;28;20080;-67
2022/01/31 09:44:14;;;;;;;12.75;3.90;;;;;;;;;;5041937;28;20450;-68
2022/01/31 09:49:19;;;;;;;7.78;4.13;;;;;;;;;;5025265;28;20466;-70
2022/01/31 09:51:45;;;;;;;6.35;3.10;;;;;;;;;;5023957;28;20029;-70
2022/01/31 09:54:11;;;;;;;5.57;3.45;;;;;;;;;;5043105;28;20029;-70
2022/01/31 09:56:40;;;;;;;5.82;3.80;;;;;;;;;;5007613;28;20041;-69
2022/01/31 09:59:06;;;;;;;4.50;3.20;;;;;;;;;;5041530;28;20033;-70
2022/01/31 10:01:54;;;;;;;8.82;3.58;;;;;;;;;;5025775;28;20048;-70
2022/01/31 10:04:24;;;;;;;6.97;3.30;;;;;;;;;;5040254;28;20377;-68
2022/01/31 10:06:51;;;;;;;5.82;3.30;;;;;;;;;;5008549;28;20082;-70
2022/01/31 10:09:24;;;;;;;7.65;3.75;;;;;;;;;;5023593;28;20119;-69
2022/01/31 10:12:23;;;;;;;6.93;3.65;;;;;;;;;;5025179;28;20061;-70
2022/01/31 10:17:40;;;;;;;4.85;3.30;;;;;;;;;;5029037;28;20123;-70
2022/01/31 10:20:14;;;;;;;3.50;2.88;;;;;;;;;;5026792;28;20033;-71
2022/01/31 10:22:41;;;;;;;3.53;2.42;;;;;;;;;;5041453;28;20397;-67
2022/01/31 10:25:08;;;;;;;7.57;3.05;;;;;;;;;;5045591;28;20028;-69
2022/01/31 10:27:34;;;;;;;7.93;2.65;;;;;;;;;;5032153;28;20032;-70
2022/01/31 10:30:15;;;;;;;3.97;2.70;;;;;;;;;;5028400;28;20503;-67
2022/01/31 10:32:45;;;;;;;5.03;2.33;;;;;;;;;;5044333;28;20049;-70
2022/01/31 10:35:15;;;;;;;3.58;2.30;;;;;;;;;;5028441;28;20455;-70
2022/01/31 10:37:41;;;;;;;2.75;2.10;;;;;;;;;;5044022;28;20043;-71
2022/01/31 10:53:25;;;;;;;1.50;1.40;;;;;;;;;;5028881;28;20067;-70
2022/01/31 10:55:54;;;;;;;1.92;1.40;;;;;;;;;;5046502;28;20068;-71
2022/01/31 10:58:19;;;;;;;1.10;1.10;;;;;;;;;;5048112;28;20029;-71
2022/01/31 11:00:44;;;;;;;0.82;0.82;;;;;;;;;;5047728;28;20087;-71
2022/01/31 11:03:30;;;;;;;1.10;1.08;;;;;;;;;;5048110;28;20108;-71
2022/01/31 11:05:55;;;;;;;0.90;0.90;;;;;;;;;;5034828;28;20021;-70
2022/01/31 11:08:21;;;;;;;0.90;0.90;;;;;;;;;;5032367;28;20033;-69
2022/01/31 11:10:46;;;;;;;1.10;1.08;;;;;;;;;;5051161;28;20020;-69
2022/01/31 11:13:12;;;;;;;1.30;1.20;;;;;;;;;;5033064;28;20029;-69
2022/01/31 11:15:37;;;;;;;1.20;1.10;;;;;;;;;;5032772;28;20025;-69
2022/01/31 11:18:05;;;;;;;0.90;0.90;;;;;;;;;;5018537;28;21357;-69
2022/01/31 11:20:31;;;;;;;0.93;0.93;;;;;;;;;;5033472;28;20028;-69
2022/01/31 11:22:58;;;;;;;1.10;1.10;;;;;;;;;;5015916;28;20035;-68
2022/01/31 11:25:26;;;;;;;1.00;1.00;;;;;;;;;;5048931;28;20033;-69
2022/01/31 11:27:53;;;;;;;1.55;1.10;;;;;;;;;;5016248;28;20036;-68
2022/01/31 11:30:19;;;;;;;1.15;1.15;;;;;;;;;;5014212;28;20032;-69
2022/01/31 11:32:45;;;;;;;2.17;1.17;;;;;;;;;;5031194;28;20028;-68
2022/01/31 11:35:11;;;;;;;1.13;1.08;;;;;;;;;;5033353;28;20168;-68
2022/01/31 11:37:37;;;;;;;1.65;1.40;;;;;;;;;;5015554;28;20115;-68
2022/01/31 11:40:05;;;;;;;1.25;1.10;;;;;;;;;;5050346;28;20355;-68
2022/01/31 11:42:30;;;;;;;1.10;1.10;;;;;;;;;;5032311;28;20079;-68
2022/01/31 11:44:59;;;;;;;3.30;1.20;;;;;;;;;;5033737;28;20036;-68
2022/01/31 11:47:24;;;;;;;1.38;1.25;;;;;;;;;;5049678;28;20039;-68
2022/01/31 11:49:57;;;;;;;0.90;0.90;;;;;;;;;;5050003;28;20475;-67
2022/01/31 11:52:23;;;;;;;1.05;1.05;;;;;;;;;;5049717;28;20017;-68
2022/01/31 11:54:53;;;;;;;2.17;1.08;;;;;;;;;;5050081;28;20028;-67
2022/01/31 11:57:24;;;;;;;1.30;1.20;;;;;;;;;;5010311;28;20058;-68
2022/01/31 11:59:50;;;;;;;1.20;1.10;;;;;;;;;;5048897;28;20083;-68
2022/01/31 12:02:16;;;;;;;1.00;1.00;;;;;;;;;;5031274;28;20033;-68
2022/01/31 12:04:44;;;;;;;1.02;1.02;;;;;;;;;;5030793;28;20032;-67
2022/01/31 12:07:41;;;;;;;1.10;1.10;;;;;;;;;;5045982;28;21202;-67
2022/01/31 12:10:20;;;;;;;1.05;1.05;;;;;;;;;;5048391;28;20446;-67
2022/01/31 12:23:38;;;;;;;1.10;1.10;;;;;;;;;;5049121;28;20031;-67
2022/01/31 12:26:04;;;;;;;1.25;1.17;;;;;;;;;;5047364;28;20021;-67
2022/01/31 12:28:39;;;;;;;1.10;0.95;;;;;;;;;;5029347;28;20395;-67
2022/01/31 12:31:31;;;;;;;0.90;0.90;;;;;;;;;;5047169;28;20071;-67
2022/01/31 12:33:56;;;;;;;1.55;0.90;;;;;;;;;;5015408;28;20029;-67
2022/01/31 12:36:34;;;;;;;0.90;0.90;;;;;;;;;;5030422;28;20039;-67
2022/01/31 12:38:59;;;;;;;0.90;0.90;;;;;;;;;;5047710;28;20032;-67
2022/01/31 12:41:32;;;;;;;1.00;1.00;;;;;;;;;;5046467;28;20047;-67
2022/01/31 12:44:25;;;;;;;1.63;1.40;;;;;;;;;;5047198;28;20561;-67
2022/01/31 12:46:50;;;;;;;0.98;0.98;;;;;;;;;;5044865;28;20031;-67
2022/01/31 12:49:15;;;;;;;1.10;0.98;;;;;;;;;;5048607;28;20392;-67
2022/01/31 12:51:57;;;;;;;1.10;1.00;;;;;;;;;;5013004;28;20032;-67
2022/01/31 12:54:23;;;;;;;1.25;1.20;;;;;;;;;;5047665;28;20063;-67
2022/01/31 12:56:48;;;;;;;1.38;1.27;;;;;;;;;;5047839;28;20428;-67
2022/01/31 12:59:15;;;;;;;1.35;1.08;;;;;;;;;;5047286;28;20028;-67
2022/01/31 13:01:42;;;;;;;1.23;1.10;;;;;;;;;;5044831;28;20056;-68
2022/01/31 13:04:24;;;;;;;3.03;1.17;;;;;;;;;;5029613;28;20024;-67
2022/01/31 13:06:59;;;;;;;1.15;1.15;;;;;;;;;;5028940;28;20024;-67
2022/01/31 13:09:28;;;;;;;0.95;0.95;;;;;;;;;;5046753;28;20400;-67
2022/01/31 13:12:04;;;;;;;1.63;1.10;;;;;;;;;;5046637;28;20083;-67
2022/01/31 13:14:34;;;;;;;1.20;0.95;;;;;;;;;;5044980;28;20039;-67
2022/01/31 13:17:06;;;;;;;1.00;1.00;;;;;;;;;;5046488;28;20031;-67
2022/01/31 13:19:33;;;;;;;1.00;1.00;;;;;;;;;;5014008;28;20495;-67
2022/01/31 13:22:00;;;;;;;1.38;1.27;;;;;;;;;;5027491;28;20036;-67
2022/01/31 13:24:34;;;;;;;0.93;0.93;;;;;;;;;;5045373;28;20029;-67
2022/01/31 13:27:00;;;;;;;1.27;1.17;;;;;;;;;;5029129;28;20594;-67
2022/01/31 13:29:30;;;;;;;1.45;1.15;;;;;;;;;;5046956;28;20178;-67
2022/01/31 13:31:56;;;;;;;1.00;1.00;;;;;;;;;;5045325;28;20029;-67
2022/01/31 13:34:41;;;;;;;1.17;1.08;;;;;;;;;;5008980;28;20345;-69
2022/01/31 13:37:28;;;;;;;1.48;1.25;;;;;;;;;;5047270;28;20025;-67
2022/01/31 13:39:54;;;;;;;3.00;1.20;;;;;;;;;;5045157;28;20083;-67
2022/01/31 13:42:26;;;;;;;1.33;1.23;;;;;;;;;;5027569;28;20021;-67
2022/01/31 13:44:54;;;;;;;2.63;1.40;;;;;;;;;;5029694;28;20121;-67
2022/01/31 13:47:42;;;;;;;1.45;1.35;;;;;;;;;;5029979;28;20115;-67
2022/01/31 13:50:17;;;;;;;1.48;1.38;;;;;;;;;;5012735;28;20055;-67
2022/01/31 13:52:52;;;;;;;3.38;1.40;;;;;;;;;;5012533;28;20025;-67
2022/01/31 13:55:17;;;;;;;1.63;1.30;;;;;;;;;;5045228;28;20326;-67
2022/01/31 13:57:43;;;;;;;1.65;1.40;;;;;;;;;;5014975;28;20028;-67
2022/01/31 14:00:08;;;;;;;1.00;1.00;;;;;;;;;;5047720;28;20033;-67
2022/01/31 14:02:35;;;;;;;1.05;1.05;;;;;;;;;;5051789;28;20474;-67
2022/01/31 14:05:02;;;;;;;2.05;1.35;;;;;;;;;;5028772;28;20039;-67
2022/01/31 14:07:30;;;;;;;2.67;1.27;;;;;;;;;;5033506;28;20025;-67
2022/01/31 14:09:55;;;;;;;1.10;1.10;;;;;;;;;;5033969;28;20025;-67
2022/01/31 14:12:24;;;;;;;1.65;1.27;;;;;;;;;;5031078;28;20063;-67
2022/01/31 14:14:49;;;;;;;2.55;1.30;;;;;;;;;;5029985;28;20040;-67
2022/01/31 14:17:14;;;;;;;5.78;1.52;;;;;;;;;;5032607;28;20424;-67
2022/01/31 14:19:40;;;;;;;1.30;1.20;;;;;;;;;;5048806;28;20286;-67
2022/01/31 14:22:07;;;;;;;1.42;1.33;;;;;;;;;;5029397;28;20029;-67
2022/01/31 14:24:33;;;;;;;1.08;1.08;;;;;;;;;;4998601;28;20029;-67
2022/01/31 14:27:04;;;;;;;2.53;1.10;;;;;;;;;;5046626;28;20025;-67
2022/01/31 14:29:31;;;;;;;1.77;1.20;;;;;;;;;;5050368;28;20017;-67
2022/01/31 14:31:57;;;;;;;1.23;1.02;;;;;;;;;;5046716;28;20083;-67
2022/01/31 14:34:24;;;;;;;4.53;1.70;;;;;;;;;;5031544;28;20025;-67
2022/01/31 14:36:53;;;;;;;1.55;1.25;;;;;;;;;;5029046;28;20059;-67
2022/01/31 14:42:00;;;;;;;1.27;1.10;;;;;;;;;;5029295;28;20056;-67
2022/01/31 14:47:20;;;;;;;3.20;1.30;;;;;;;;;;5011019;28;20439;-67
2022/01/31 14:50:04;;;;;;;5.50;1.10;;;;;;;;;;5051079;28;20025;-69
2022/01/31 14:52:30;;;;;;;0.98;0.80;;;;;;;;;;5033158;28;20114;-68
2022/01/31 14:55:04;;;;;;;3.33;1.20;;;;;;;;;;5047851;28;20025;-68
2022/01/31 14:57:29;;;;;;;;;;;;;;;;;;5028292;28;20116;-68
2022/01/31 14:59:55;;;;;;;3.78;1.10;;;;;;;;;;5047210;28;20007;-68
2022/01/31 15:02:20;;;;;;;1.05;0.95;;;;;;;;;;5030405;28;20114;-68
2022/01/31 15:04:45;;;;;;;1.83;1.08;;;;;;;;;;5033154;28;20051;-68
2022/01/31 15:07:12;;;;;;;1.45;1.30;;;;;;;;;;5050804;28;20036;-68
2022/01/31 15:09:37;;;;;;;2.00;1.20;;;;;;;;;;5033063;28;20025;-68
2022/01/31 15:12:03;;;;;;;1.70;1.20;;;;;;;;;;5030369;28;20029;-68
2022/01/31 15:14:28;;;;;;;1.48;0.82;;;;;;;;;;5047561;28;20021;-68
2022/01/31 15:16:54;;;;;;;1.25;1.15;;;;;;;;;;5048406;28;20029;-68